createdAt,value
2023-01-17T00:00:20.604Z,101144.62
2023-01-17T00:01:22.382Z,101143.81
2023-01-17T00:02:24.264Z,101139.53
2023-01-17T00:03:26.162Z,101140.39
2023-01-17T00:04:27.967Z,101139.53
2023-01-17T00:05:29.780Z,101139.59
2023-01-17T00:06:31.779Z,101139.59
2023-01-17T00:07:33.578Z,101140.39
2023-01-17T00:08:35.437Z,101137.82
2023-01-17T00:09:37.259Z,101138.66
2023-01-17T00:10:39.174Z,101137.75
2023-01-17T00:11:40.977Z,101145.48
2023-01-17T00:12:42.797Z,101137.69
2023-01-17T00:13:44.651Z,101132.54
2023-01-17T00:14:46.464Z,101135.05
2023-01-17T00:15:48.272Z,101133.31
2023-01-17T00:16:50.171Z,101133.21
2023-01-17T00:17:51.993Z,101133.21
2023-01-17T00:18:53.866Z,101132.34
2023-01-17T00:19:55.676Z,101132.28
2023-01-17T00:20:57.599Z,101136.50
2023-01-17T00:21:59.460Z,101132.21
2023-01-17T00:23:01.252Z,101127.93
2023-01-17T00:24:03.109Z,101121.04
2023-01-17T00:25:04.911Z,101124.42
2023-01-17T00:26:07.029Z,101118.47
2023-01-17T00:27:08.831Z,101120.14
2023-01-17T00:28:10.650Z,101121.04
2023-01-17T00:29:12.501Z,101117.56
2023-01-17T00:30:15.322Z,101123.62
2023-01-17T00:31:17.298Z,101117.50
2023-01-17T00:32:19.152Z,101119.27
2023-01-17T00:33:20.958Z,101120.14
2023-01-17T00:34:22.803Z,101121.84
2023-01-17T00:35:24.604Z,101120.98
2023-01-17T00:36:26.504Z,101119.27
2023-01-17T00:37:28.340Z,101115.83
2023-01-17T00:38:30.176Z,101118.47
2023-01-17T00:39:32.010Z,101115.89
2023-01-17T00:40:33.915Z,101110.73
2023-01-17T00:41:35.722Z,101112.41
2023-01-17T00:42:37.548Z,101107.26
2023-01-17T00:43:39.551Z,101107.19
2023-01-17T00:44:41.430Z,101106.33
2023-01-17T00:45:43.233Z,101108.90
2023-01-17T00:46:45.246Z,101109.70
2023-01-17T00:47:47.047Z,101102.88
2023-01-17T00:48:48.851Z,101096.83
2023-01-17T00:49:50.704Z,101101.98
2023-01-17T00:50:52.719Z,101106.26
2023-01-17T00:51:54.527Z,101101.98
2023-01-17T00:52:56.475Z,101104.55
2023-01-17T00:53:58.271Z,101094.19
2023-01-17T00:55:00.143Z,101107.91
2023-01-17T00:56:01.929Z,101097.59
2023-01-17T00:57:03.763Z,101097.73
2023-01-17T00:58:05.566Z,101098.53
2023-01-17T00:59:07.358Z,101092.58
2023-01-17T01:00:09.621Z,101092.58
2023-01-17T01:01:11.482Z,101096.09
2023-01-17T01:02:13.353Z,101095.28
2023-01-17T01:03:15.173Z,101095.34
2023-01-17T01:04:16.987Z,101089.29
2023-01-17T01:05:18.855Z,101094.50
2023-01-17T01:06:20.759Z,101088.48
2023-01-17T01:07:22.575Z,101085.97
2023-01-17T01:08:24.413Z,101087.68
2023-01-17T01:09:26.250Z,101080.76
2023-01-17T01:10:28.284Z,101091.06
2023-01-17T01:11:30.110Z,101075.61
2023-01-17T01:12:31.924Z,101077.37
2023-01-17T01:13:33.739Z,101084.20
2023-01-17T01:14:35.626Z,101080.69
2023-01-17T01:15:37.473Z,101072.97
2023-01-17T01:16:39.397Z,101072.09
2023-01-17T01:17:41.205Z,101074.67
2023-01-17T01:18:43.031Z,101072.03
2023-01-17T01:19:44.846Z,101068.62
2023-01-17T01:20:46.707Z,101063.41
2023-01-17T01:21:48.535Z,101063.41
2023-01-17T01:22:50.348Z,101064.30
2023-01-17T01:23:52.620Z,101063.34
2023-01-17T01:24:54.499Z,101067.63
2023-01-17T01:25:56.343Z,101069.33
2023-01-17T01:26:58.259Z,101068.42
2023-01-17T01:28:00.111Z,101058.96
2023-01-17T01:29:01.990Z,101056.39
2023-01-17T01:30:03.905Z,101060.64
2023-01-17T01:31:05.767Z,101051.11
2023-01-17T01:32:07.602Z,101054.55
2023-01-17T01:33:09.414Z,101056.26
2023-01-17T01:34:11.226Z,101050.14
2023-01-17T01:35:13.044Z,101050.08
2023-01-17T01:36:15.018Z,101053.49
2023-01-17T01:37:16.831Z,101049.14
2023-01-17T01:38:18.637Z,101052.66
2023-01-17T01:39:20.518Z,101059.52
2023-01-17T01:40:22.438Z,101043.13
2023-01-17T01:41:24.296Z,101050.69
2023-01-17T01:42:26.103Z,101056.55
2023-01-17T01:43:27.933Z,101054.78
2023-01-17T01:44:29.760Z,101058.16
2023-01-17T01:45:31.614Z,101053.91
2023-01-17T01:46:33.599Z,101047.92
2023-01-17T01:47:35.418Z,101053.00
2023-01-17T01:48:37.220Z,101058.28
2023-01-17T01:49:39.038Z,101049.69
2023-01-17T01:50:40.938Z,101051.46
2023-01-17T01:51:42.823Z,101053.97
2023-01-17T01:52:44.656Z,101047.12
2023-01-17T01:53:46.445Z,101054.84
2023-01-17T01:54:48.460Z,101044.48
2023-01-17T01:55:50.271Z,101053.14
2023-01-17T01:56:52.435Z,101038.59
2023-01-17T01:57:54.243Z,101037.75
2023-01-17T01:58:56.052Z,101036.81
2023-01-17T01:59:57.866Z,101041.03
2023-01-17T02:00:59.855Z,101045.28
2023-01-17T02:02:01.767Z,101041.84
2023-01-17T02:03:03.565Z,101033.25
2023-01-17T02:04:05.448Z,101034.98
2023-01-17T02:05:07.271Z,101036.75
2023-01-17T02:06:09.797Z,101035.11
2023-01-17T02:07:11.665Z,101027.38
2023-01-17T02:08:13.498Z,101030.86
2023-01-17T02:09:15.302Z,101036.75
2023-01-17T02:10:17.260Z,101036.69
2023-01-17T02:11:19.069Z,101032.28
2023-01-17T02:12:20.944Z,101028.03
2023-01-17T02:13:22.758Z,101027.90
2023-01-17T02:14:24.597Z,101024.30
2023-01-17T02:15:26.388Z,101024.17
2023-01-17T02:16:28.507Z,101029.25
2023-01-17T02:17:30.350Z,101023.36
2023-01-17T02:18:32.155Z,101025.13
2023-01-17T02:19:33.963Z,101023.30
2023-01-17T02:20:35.907Z,101027.70
2023-01-17T02:21:37.804Z,101024.17
2023-01-17T02:22:39.654Z,101031.02
2023-01-17T02:23:41.460Z,101018.76
2023-01-17T02:24:43.293Z,101018.76
2023-01-17T02:25:45.135Z,101023.17
2023-01-17T02:26:47.045Z,101024.03
2023-01-17T02:27:48.904Z,101018.82
2023-01-17T02:28:50.716Z,101018.76
2023-01-17T02:29:52.539Z,101017.83
2023-01-17T02:30:54.485Z,101019.63
2023-01-17T02:31:56.399Z,101016.92
2023-01-17T02:32:58.266Z,101011.58
2023-01-17T02:34:00.105Z,101014.02
2023-01-17T02:35:01.879Z,101004.56
2023-01-17T02:36:03.717Z,100998.38
2023-01-17T02:37:05.822Z,101005.23
2023-01-17T02:38:07.666Z,101002.66
2023-01-17T02:39:09.506Z,101002.66
2023-01-17T02:40:12.021Z,100994.14
2023-01-17T02:41:13.876Z,100992.37
2023-01-17T02:42:15.791Z,100987.22
2023-01-17T02:43:17.650Z,100994.94
2023-01-17T02:44:19.463Z,100996.58
2023-01-17T02:45:21.276Z,100993.84
2023-01-17T02:46:23.220Z,100994.67
2023-01-17T02:47:25.017Z,100990.27
2023-01-17T02:48:26.883Z,100984.25
2023-01-17T02:49:28.732Z,100985.86
2023-01-17T02:50:30.676Z,100985.92
2023-01-17T02:51:32.477Z,100983.35
2023-01-17T02:52:34.295Z,100988.50
2023-01-17T02:53:36.165Z,100982.42
2023-01-17T02:54:37.992Z,100988.50
2023-01-17T02:55:39.813Z,100984.12
2023-01-17T02:56:41.825Z,100981.48
2023-01-17T02:57:43.649Z,100980.58
2023-01-17T02:58:45.519Z,100979.65
2023-01-17T02:59:47.325Z,100977.08
2023-01-17T03:00:49.428Z,100979.58
2023-01-17T03:01:51.378Z,100979.52
2023-01-17T03:02:53.352Z,100975.10
2023-01-17T03:03:55.252Z,100974.97
2023-01-17T03:04:57.091Z,100971.40
2023-01-17T03:05:58.909Z,100970.42
2023-01-17T03:07:00.830Z,100972.13
2023-01-17T03:08:02.640Z,100973.00
2023-01-17T03:09:04.517Z,100972.13
2023-01-17T03:10:06.445Z,100979.78
2023-01-17T03:11:08.238Z,100973.00
2023-01-17T03:12:10.265Z,100976.47
2023-01-17T03:13:12.054Z,100978.91
2023-01-17T03:14:14.037Z,100975.44
2023-01-17T03:15:15.846Z,100986.77
2023-01-17T03:16:17.884Z,100980.72
2023-01-17T03:17:19.683Z,100978.91
2023-01-17T03:18:21.460Z,100990.06
2023-01-17T03:19:23.305Z,100980.66
2023-01-17T03:20:25.405Z,100977.88
2023-01-17T03:21:27.226Z,100982.95
2023-01-17T03:22:29.050Z,100984.66
2023-01-17T03:23:30.854Z,100982.15
2023-01-17T03:24:32.708Z,100983.86
2023-01-17T03:25:34.517Z,100976.14
2023-01-17T03:26:36.441Z,100983.78
2023-01-17T03:27:38.396Z,100982.02
2023-01-17T03:28:40.228Z,100980.38
2023-01-17T03:29:42.090Z,100983.92
2023-01-17T03:30:44.126Z,100983.02
2023-01-17T03:31:45.951Z,100986.56
2023-01-17T03:32:47.750Z,100985.59
2023-01-17T03:33:49.551Z,100975.30
2023-01-17T03:34:51.414Z,100987.43
2023-01-17T03:35:53.239Z,100983.98
2023-01-17T03:36:55.143Z,100984.86
2023-01-17T03:37:56.978Z,100981.48
2023-01-17T03:38:58.803Z,100981.62
2023-01-17T03:40:00.642Z,100980.78
2023-01-17T03:41:02.455Z,100987.70
2023-01-17T03:42:04.299Z,100984.39
2023-01-17T03:43:06.150Z,100981.02
2023-01-17T03:44:07.974Z,100979.37
2023-01-17T03:45:09.808Z,100982.09
2023-01-17T03:46:11.827Z,100981.22
2023-01-17T03:47:13.633Z,100984.73
2023-01-17T03:48:15.621Z,100983.79
2023-01-17T03:49:17.407Z,100987.16
2023-01-17T03:50:19.249Z,100990.61
2023-01-17T03:51:21.074Z,100993.95
2023-01-17T03:52:22.925Z,100984.39
2023-01-17T03:53:24.736Z,100991.30
2023-01-17T03:54:26.537Z,100988.73
2023-01-17T03:55:28.392Z,100988.67
2023-01-17T03:56:30.503Z,100987.70
2023-01-17T03:57:32.307Z,100987.83
2023-01-17T03:58:34.160Z,100985.20
2023-01-17T03:59:35.971Z,100983.45
2023-01-17T04:00:37.960Z,100981.62
2023-01-17T04:01:39.879Z,100982.48
2023-01-17T04:02:41.835Z,100984.19
2023-01-17T04:03:43.709Z,100980.78
2023-01-17T04:04:45.511Z,100986.70
2023-01-17T04:05:47.355Z,100991.70
2023-01-17T04:06:49.168Z,100993.44
2023-01-17T04:07:51.808Z,100992.51
2023-01-17T04:08:53.798Z,100992.51
2023-01-17T04:09:55.610Z,100989.13
2023-01-17T04:10:57.558Z,100989.13
2023-01-17T04:11:59.373Z,100983.09
2023-01-17T04:13:01.188Z,100975.38
2023-01-17T04:14:03.075Z,100979.65
2023-01-17T04:15:04.888Z,100971.06
2023-01-17T04:16:06.944Z,100976.20
2023-01-17T04:17:08.763Z,100977.08
2023-01-17T04:18:10.573Z,100974.44
2023-01-17T04:19:12.380Z,100976.14
2023-01-17T04:20:14.396Z,100973.63
2023-01-17T04:21:16.264Z,100970.09
2023-01-17T04:22:18.068Z,100976.94
2023-01-17T04:23:20.033Z,100969.16
2023-01-17T04:24:21.873Z,100970.86
2023-01-17T04:25:23.679Z,100970.80
2023-01-17T04:26:25.631Z,100975.94
2023-01-17T04:27:27.448Z,100969.75
2023-01-17T04:28:29.256Z,100968.09
2023-01-17T04:29:31.085Z,100974.09
2023-01-17T04:30:33.053Z,100969.82
2023-01-17T04:31:34.996Z,100964.75
2023-01-17T04:32:36.753Z,100968.22
2023-01-17T04:33:38.555Z,100961.38
2023-01-17T04:34:40.388Z,100970.86
2023-01-17T04:35:42.214Z,100964.15
2023-01-17T04:36:44.275Z,100961.51
2023-01-17T04:37:46.087Z,100972.73
2023-01-17T04:38:47.874Z,100979.58
2023-01-17T04:39:49.697Z,100970.66
2023-01-17T04:40:51.702Z,100973.96
2023-01-17T04:41:53.547Z,100970.52
2023-01-17T04:42:55.365Z,100974.70
2023-01-17T04:43:57.167Z,100973.89
2023-01-17T04:44:59.058Z,100977.33
2023-01-17T04:46:00.904Z,100984.98
2023-01-17T04:47:02.847Z,100986.82
2023-01-17T04:48:04.630Z,100981.67
2023-01-17T04:49:06.439Z,100990.33
2023-01-17T04:50:08.360Z,100993.94
2023-01-17T04:51:10.145Z,100997.45
2023-01-17T04:52:12.021Z,100996.72
2023-01-17T04:53:13.831Z,101000.16
2023-01-17T04:54:15.638Z,100995.08
2023-01-17T04:55:17.454Z,101004.56
2023-01-17T04:56:19.367Z,101000.36
2023-01-17T04:57:21.263Z,101003.00
2023-01-17T04:58:23.049Z,101002.27
2023-01-17T04:59:24.844Z,101003.13
2023-01-17T05:00:26.827Z,101004.03
2023-01-17T05:01:30.606Z,100998.05
2023-01-17T05:02:32.542Z,101000.56
2023-01-17T05:03:34.430Z,100990.27
2023-01-17T05:04:36.251Z,100993.75
2023-01-17T05:05:38.056Z,100986.83
2023-01-17T05:06:39.981Z,100982.48
2023-01-17T05:07:41.842Z,100984.99
2023-01-17T05:08:43.654Z,100986.70
2023-01-17T05:09:45.473Z,100980.58
2023-01-17T05:10:47.472Z,100982.29
2023-01-17T05:11:49.291Z,100985.73
2023-01-17T05:12:51.150Z,100981.34
2023-01-17T05:13:52.993Z,100974.44
2023-01-17T05:14:54.783Z,100976.20
2023-01-17T05:15:56.693Z,100976.94
2023-01-17T05:16:58.658Z,100971.00
2023-01-17T05:18:00.506Z,100977.81
2023-01-17T05:19:02.309Z,100982.02
2023-01-17T05:20:04.226Z,100983.65
2023-01-17T05:21:06.146Z,100979.37
2023-01-17T05:22:07.978Z,100981.95
2023-01-17T05:23:09.847Z,100981.14
2023-01-17T05:24:11.649Z,100981.14
2023-01-17T05:25:13.482Z,100988.93
2023-01-17T05:26:15.300Z,100982.15
2023-01-17T05:27:17.102Z,100983.09
2023-01-17T05:28:18.954Z,100976.27
2023-01-17T05:29:20.784Z,100973.70
2023-01-17T05:30:22.730Z,100978.78
2023-01-17T05:31:24.572Z,100970.16
2023-01-17T05:32:26.427Z,100981.22
2023-01-17T05:33:28.281Z,100982.02
2023-01-17T05:34:30.107Z,100982.88
2023-01-17T05:35:31.909Z,100980.24
2023-01-17T05:36:33.922Z,100987.16
2023-01-17T05:37:35.744Z,100976.88
2023-01-17T05:38:37.628Z,100979.37
2023-01-17T05:39:39.428Z,100982.75
2023-01-17T05:40:41.480Z,100984.59
2023-01-17T05:41:43.289Z,100987.23
2023-01-17T05:42:45.114Z,100981.28
2023-01-17T05:43:46.976Z,100984.72
2023-01-17T05:44:48.778Z,100976.20
2023-01-17T05:45:50.630Z,100976.20
2023-01-17T05:46:52.557Z,100970.30
2023-01-17T05:47:54.450Z,100981.48
2023-01-17T05:48:56.340Z,100970.30
2023-01-17T05:49:58.163Z,100972.87
2023-01-17T05:51:00.202Z,100966.66
2023-01-17T05:52:01.992Z,100958.00
2023-01-17T05:53:03.801Z,100959.67
2023-01-17T05:54:05.663Z,100962.17
2023-01-17T05:55:07.481Z,100968.16
2023-01-17T05:56:10.344Z,100970.73
2023-01-17T05:57:12.182Z,100963.88
2023-01-17T05:58:14.002Z,100973.30
2023-01-17T05:59:18.737Z,100970.66
2023-01-17T06:00:19.585Z,100974.97
2023-01-17T06:01:21.479Z,100966.52
2023-01-17T06:02:23.401Z,100968.22
2023-01-17T06:03:25.219Z,100970.02
2023-01-17T06:04:27.155Z,100970.09
2023-01-17T06:05:28.990Z,100968.36
2023-01-17T06:06:31.022Z,100967.52
2023-01-17T06:07:32.831Z,100971.00
2023-01-17T06:08:34.650Z,100977.01
2023-01-17T06:09:36.499Z,100981.28
2023-01-17T06:10:38.433Z,100980.58
2023-01-17T06:11:40.263Z,100977.14
2023-01-17T06:12:42.074Z,100984.06
2023-01-17T06:13:43.900Z,100975.51
2023-01-17T06:14:45.765Z,100978.31
2023-01-17T06:15:47.659Z,100974.97
2023-01-17T06:16:49.722Z,100969.89
2023-01-17T06:17:51.635Z,100974.30
2023-01-17T06:18:53.446Z,100964.81
2023-01-17T06:19:55.300Z,100969.09
2023-01-17T06:20:57.112Z,100964.75
2023-01-17T06:21:58.928Z,100972.47
2023-01-17T06:23:00.749Z,100967.39
2023-01-17T06:24:04.225Z,100972.66
2023-01-17T06:25:06.230Z,100969.36
2023-01-17T06:26:09.276Z,100962.44
2023-01-17T06:27:11.207Z,100970.22
2023-01-17T06:28:13.016Z,100960.83
2023-01-17T06:29:15.251Z,100954.85
2023-01-17T06:30:17.216Z,100948.91
2023-01-17T06:31:19.107Z,100939.41
2023-01-17T06:32:21.005Z,100951.41
2023-01-17T06:33:22.834Z,100940.25
2023-01-17T06:34:24.761Z,100934.27
2023-01-17T06:35:26.618Z,100935.11
2023-01-17T06:36:28.651Z,100935.11
2023-01-17T06:37:30.456Z,100926.42
2023-01-17T06:38:32.276Z,100934.08
2023-01-17T06:39:34.089Z,100922.91
2023-01-17T06:40:36.068Z,100927.12
2023-01-17T06:41:37.906Z,100927.93
2023-01-17T06:42:39.705Z,100925.36
2023-01-17T06:43:41.647Z,100925.42
2023-01-17T06:44:43.482Z,100930.70
2023-01-17T06:45:45.442Z,100929.95
2023-01-17T06:46:47.553Z,100926.42
2023-01-17T06:47:49.412Z,100929.83
2023-01-17T06:48:51.270Z,100923.78
2023-01-17T06:49:53.079Z,100932.41
2023-01-17T06:50:55.060Z,100922.98
2023-01-17T06:51:56.920Z,100928.13
2023-01-17T06:52:58.743Z,100934.14
2023-01-17T06:54:00.720Z,100923.84
2023-01-17T06:55:02.505Z,100930.70
2023-01-17T06:56:04.457Z,100930.70
2023-01-17T06:57:06.332Z,100939.22
2023-01-17T06:58:08.340Z,100928.86
2023-01-17T06:59:10.366Z,100934.97
2023-01-17T07:00:12.742Z,100935.04
2023-01-17T07:01:14.773Z,100941.12
2023-01-17T07:02:16.704Z,100941.19
2023-01-17T07:03:18.569Z,100943.02
2023-01-17T07:04:20.467Z,100936.10
2023-01-17T07:05:22.307Z,100937.03
2023-01-17T07:06:24.252Z,100935.43
2023-01-17T07:07:26.058Z,100927.77
2023-01-17T07:08:27.893Z,100930.47
2023-01-17T07:09:29.737Z,100922.81
2023-01-17T07:10:31.658Z,100928.90
2023-01-17T07:11:33.501Z,100940.16
2023-01-17T07:12:35.326Z,100929.92
2023-01-17T07:13:37.159Z,100930.92
2023-01-17T07:14:39.067Z,100930.92
2023-01-17T07:15:41.042Z,100931.11
2023-01-17T07:16:43.110Z,100930.30
2023-01-17T07:17:44.924Z,100928.59
2023-01-17T07:18:46.728Z,100932.05
2023-01-17T07:19:48.637Z,100932.10
2023-01-17T07:20:50.587Z,100931.23
2023-01-17T07:21:52.433Z,100937.31
2023-01-17T07:22:54.237Z,100943.37
2023-01-17T07:23:56.072Z,100943.42
2023-01-17T07:24:57.891Z,100948.64
2023-01-17T07:25:59.697Z,100946.94
2023-01-17T07:27:01.558Z,100941.91
2023-01-17T07:28:03.371Z,100938.66
2023-01-17T07:29:05.211Z,100937.85
2023-01-17T07:30:07.444Z,100943.93
2023-01-17T07:31:09.256Z,100934.56
2023-01-17T07:32:11.118Z,100932.05
2023-01-17T07:33:13.037Z,100933.75
2023-01-17T07:34:14.848Z,100939.09
2023-01-17T07:35:16.835Z,100942.63
2023-01-17T07:36:18.767Z,100940.11
2023-01-17T07:37:20.636Z,100936.70
2023-01-17T07:38:22.423Z,100937.66
2023-01-17T07:39:24.250Z,100933.44
2023-01-17T07:40:26.187Z,100938.71
2023-01-17T07:41:28.092Z,100931.11
2023-01-17T07:42:29.936Z,100932.94
2023-01-17T07:43:31.771Z,100930.54
2023-01-17T07:44:33.603Z,100922.75
2023-01-17T07:45:35.442Z,100915.02
2023-01-17T07:46:37.615Z,100920.17
2023-01-17T07:47:39.524Z,100915.02
2023-01-17T07:48:41.327Z,100914.06
2023-01-17T07:49:43.156Z,100909.81
2023-01-17T07:50:45.296Z,100911.55
2023-01-17T07:51:47.108Z,100921.91
2023-01-17T07:52:48.971Z,100923.86
2023-01-17T07:53:50.788Z,100919.61
2023-01-17T07:54:52.595Z,100918.77
2023-01-17T07:55:54.441Z,100924.03
2023-01-17T07:56:56.439Z,100916.37
2023-01-17T07:57:58.314Z,100918.13
2023-01-17T07:59:00.115Z,100922.48
2023-01-17T08:00:02.229Z,100924.22
2023-01-17T08:01:04.170Z,100927.75
2023-01-17T08:02:05.995Z,100929.55
2023-01-17T08:03:07.925Z,100935.03
2023-01-17T08:04:09.794Z,100928.16
2023-01-17T08:05:11.659Z,100924.84
2023-01-17T08:06:13.631Z,100925.70
2023-01-17T08:07:15.457Z,100918.84
2023-01-17T08:08:17.868Z,100928.28
2023-01-17T08:09:19.639Z,100926.62
2023-01-17T08:10:21.648Z,100930.10
2023-01-17T08:11:23.465Z,100924.05
2023-01-17T08:12:25.266Z,100925.06
2023-01-17T08:13:29.087Z,100925.06
2023-01-17T08:14:30.798Z,100925.18
2023-01-17T08:15:32.610Z,100920.14
2023-01-17T08:16:34.563Z,100931.38
2023-01-17T08:17:36.448Z,100922.08
2023-01-17T08:18:38.330Z,100929.81
2023-01-17T08:19:40.161Z,100929.81
2023-01-17T08:20:42.056Z,100932.45
2023-01-17T08:21:44.149Z,100933.43
2023-01-17T08:22:45.990Z,100936.94
2023-01-17T08:23:47.844Z,100940.52
2023-01-17T08:24:49.683Z,100935.37
2023-01-17T08:25:51.508Z,100934.63
2023-01-17T08:26:53.525Z,100931.25
2023-01-17T08:27:55.348Z,100933.94
2023-01-17T08:28:57.224Z,100927.06
2023-01-17T08:29:59.043Z,100924.60
2023-01-17T08:31:00.980Z,100919.53
2023-01-17T08:32:02.810Z,100927.33
2023-01-17T08:33:04.701Z,100918.04
2023-01-17T08:34:06.566Z,100923.25
2023-01-17T08:35:08.531Z,100920.73
2023-01-17T08:36:10.698Z,100926.81
2023-01-17T08:37:12.658Z,100928.69
2023-01-17T08:38:14.490Z,100926.98
2023-01-17T08:39:16.343Z,100924.39
2023-01-17T08:40:18.367Z,100925.34
2023-01-17T08:41:20.196Z,100917.66
2023-01-17T08:42:22.043Z,100925.45
2023-01-17T08:43:23.865Z,100929.02
2023-01-17T08:44:25.716Z,100927.39
2023-01-17T08:45:27.618Z,100928.25
2023-01-17T08:46:31.385Z,100918.80
2023-01-17T08:47:33.183Z,100921.33
2023-01-17T08:48:35.012Z,100917.98
2023-01-17T08:49:36.867Z,100922.28
2023-01-17T08:50:38.820Z,100918.85
2023-01-17T08:51:40.672Z,100924.13
2023-01-17T08:52:42.521Z,100924.13
2023-01-17T08:53:44.338Z,100923.30
2023-01-17T08:54:46.192Z,100921.59
2023-01-17T08:55:48.012Z,100913.85
2023-01-17T08:56:49.932Z,100911.37
2023-01-17T08:57:52.243Z,100908.94
2023-01-17T08:58:54.151Z,100913.39
2023-01-17T08:59:55.973Z,100900.48
2023-01-17T09:00:57.970Z,100915.20
2023-01-17T09:02:00.001Z,100896.38
2023-01-17T09:03:01.906Z,100899.02
2023-01-17T09:04:03.743Z,100902.52
2023-01-17T09:05:05.711Z,100901.64
2023-01-17T09:06:08.581Z,100903.42
2023-01-17T09:07:10.402Z,100899.16
2023-01-17T09:08:12.342Z,100894.05
2023-01-17T09:09:14.153Z,100897.55
2023-01-17T09:10:16.025Z,100895.94
2023-01-17T09:11:17.831Z,100889.14
2023-01-17T09:12:19.650Z,100890.06
2023-01-17T09:13:21.477Z,100885.84
2023-01-17T09:14:23.306Z,100889.34
2023-01-17T09:15:25.137Z,100890.31
2023-01-17T09:16:27.103Z,100891.21
2023-01-17T09:17:28.906Z,100882.62
2023-01-17T09:18:30.715Z,100887.98
2023-01-17T09:19:32.532Z,100895.77
2023-01-17T09:20:34.529Z,100882.91
2023-01-17T09:21:36.335Z,100882.09
2023-01-17T09:22:38.140Z,100882.19
2023-01-17T09:23:39.977Z,100882.19
2023-01-17T09:24:41.783Z,100879.66
2023-01-17T09:25:43.668Z,100878.02
2023-01-17T09:26:45.492Z,100884.97
2023-01-17T09:27:47.295Z,100875.59
2023-01-17T09:28:49.113Z,100875.59
2023-01-17T09:29:51.058Z,100878.27
2023-01-17T09:30:53.100Z,100875.69
2023-01-17T09:31:54.962Z,100870.56
2023-01-17T09:32:56.774Z,100873.20
2023-01-17T09:33:58.603Z,100874.16
2023-01-17T09:35:00.427Z,100872.48
2023-01-17T09:36:02.369Z,100863.92
2023-01-17T09:37:04.194Z,100870.89
2023-01-17T09:38:06.007Z,100867.49
2023-01-17T09:39:07.847Z,100871.04
2023-01-17T09:40:09.762Z,100874.58
2023-01-17T09:41:11.641Z,100869.45
2023-01-17T09:42:13.442Z,100877.26
2023-01-17T09:43:15.238Z,100875.58
2023-01-17T09:44:17.040Z,100872.19
2023-01-17T09:45:18.849Z,100873.12
2023-01-17T09:46:20.861Z,100869.69
2023-01-17T09:47:22.752Z,100871.45
2023-01-17T09:48:24.577Z,100873.22
2023-01-17T09:49:27.456Z,100866.38
2023-01-17T09:50:29.393Z,100862.08
2023-01-17T09:51:31.263Z,100863.02
2023-01-17T09:52:33.078Z,100858.72
2023-01-17T09:53:34.907Z,100855.31
2023-01-17T09:54:36.751Z,100859.70
2023-01-17T09:55:38.638Z,100855.40
2023-01-17T09:56:40.726Z,100853.73
2023-01-17T09:57:42.552Z,100857.25
2023-01-17T09:58:44.365Z,100847.78
2023-01-17T09:59:46.200Z,100850.45
2023-01-17T10:00:48.175Z,100851.27
2023-01-17T10:01:50.277Z,100847.87
2023-01-17T10:02:52.333Z,100837.57
2023-01-17T10:03:54.444Z,100831.49
2023-01-17T10:04:56.475Z,100833.22
2023-01-17T10:05:58.262Z,100832.31
2023-01-17T10:07:00.213Z,100827.14
2023-01-17T10:08:04.469Z,100828.91
2023-01-17T10:09:05.702Z,100825.42
2023-01-17T10:10:08.012Z,100828.91
2023-01-17T10:11:09.816Z,100822.84
2023-01-17T10:12:11.668Z,100821.16
2023-01-17T10:13:13.482Z,100823.73
2023-01-17T10:14:15.299Z,100819.34
2023-01-17T10:15:17.120Z,100822.80
2023-01-17T10:16:19.160Z,100826.28
2023-01-17T10:17:21.123Z,100827.14
2023-01-17T10:18:29.931Z,100824.52
2023-01-17T10:19:26.551Z,100819.39
2023-01-17T10:20:28.589Z,100819.43
2023-01-17T10:21:30.414Z,100821.20
2023-01-17T10:22:32.311Z,100814.22
2023-01-17T10:23:34.118Z,100829.91
2023-01-17T10:24:35.956Z,100829.03
2023-01-17T10:25:37.810Z,100829.03
2023-01-17T10:26:39.723Z,100828.19
2023-01-17T10:27:41.582Z,100834.25
2023-01-17T10:28:43.408Z,100822.19
2023-01-17T10:29:45.222Z,100826.54
2023-01-17T10:30:47.374Z,100829.21
2023-01-17T10:31:49.171Z,100831.84
2023-01-17T10:32:51.043Z,100827.53
2023-01-17T10:33:52.903Z,100829.30
2023-01-17T10:34:54.803Z,100830.20
2023-01-17T10:35:56.646Z,100828.52
2023-01-17T10:36:58.857Z,100831.14
2023-01-17T10:38:00.754Z,100829.47
2023-01-17T10:39:02.578Z,100827.80
2023-01-17T10:40:04.488Z,100830.46
2023-01-17T10:41:06.432Z,100827.05
2023-01-17T10:42:08.265Z,100827.95
2023-01-17T10:43:10.141Z,100830.59
2023-01-17T10:44:11.975Z,100831.48
2023-01-17T10:45:13.787Z,100837.65
2023-01-17T10:46:15.782Z,100836.83
2023-01-17T10:47:17.657Z,100841.17
2023-01-17T10:48:20.196Z,100835.14
2023-01-17T10:49:23.048Z,100837.77
2023-01-17T10:50:24.865Z,100838.67
2023-01-17T10:51:26.701Z,100839.58
2023-01-17T10:52:28.531Z,100839.58
2023-01-17T10:53:30.410Z,100840.53
2023-01-17T10:54:32.216Z,100838.80
2023-01-17T10:55:34.093Z,100851.77
2023-01-17T10:56:36.019Z,100833.58
2023-01-17T10:57:37.843Z,100840.53
2023-01-17T10:58:39.703Z,100834.48
2023-01-17T10:59:41.534Z,100833.70
2023-01-17T11:00:43.464Z,100839.75
2023-01-17T11:01:46.618Z,100827.67
2023-01-17T11:02:48.461Z,100820.81
2023-01-17T11:03:50.414Z,100816.45
2023-01-17T11:04:52.228Z,100817.33
2023-01-17T11:05:54.149Z,100816.45
2023-01-17T11:06:58.302Z,100805.25
2023-01-17T11:07:59.761Z,100816.42
2023-01-17T11:09:01.685Z,100810.42
2023-01-17T11:10:03.617Z,100809.52
2023-01-17T11:11:05.480Z,100810.37
2023-01-17T11:12:07.351Z,100809.52
2023-01-17T11:13:09.249Z,100806.94
2023-01-17T11:14:11.232Z,100798.31
2023-01-17T11:15:13.037Z,100794.86
2023-01-17T11:16:14.987Z,100787.09
2023-01-17T11:17:16.813Z,100788.00
2023-01-17T11:18:18.674Z,100783.69
2023-01-17T11:19:20.525Z,100788.95
2023-01-17T11:20:22.446Z,100785.53
2023-01-17T11:21:24.295Z,100789.84
2023-01-17T11:22:26.156Z,100780.36
2023-01-17T11:23:27.956Z,100782.98
2023-01-17T11:24:29.802Z,100781.30
2023-01-17T11:25:31.625Z,100774.44
2023-01-17T11:26:33.550Z,100773.61
2023-01-17T11:27:35.466Z,100771.06
2023-01-17T11:28:37.331Z,100771.06
2023-01-17T11:29:39.196Z,100761.66
2023-01-17T11:30:41.141Z,100757.30
2023-01-17T11:31:42.925Z,100766.87
2023-01-17T11:32:44.738Z,100772.95
2023-01-17T11:33:46.597Z,100767.80
2023-01-17T11:34:48.492Z,100768.74
2023-01-17T11:35:50.304Z,100771.38
2023-01-17T11:36:52.223Z,100757.57
2023-01-17T11:37:54.064Z,100759.33
2023-01-17T11:38:55.878Z,100764.51
2023-01-17T11:39:57.731Z,100757.53
2023-01-17T11:40:59.660Z,100756.74
2023-01-17T11:42:01.493Z,100752.43
2023-01-17T11:43:03.420Z,100759.44
2023-01-17T11:44:05.258Z,100759.52
2023-01-17T11:45:07.171Z,100752.69
2023-01-17T11:46:09.776Z,100756.13